• Join FlightAware (Why Join?)
  • Login
  • US Flag 
08:42PM EDT


 

Airport Tracker/Info


-or-


 

Live Flight TrackerFlight Track Log ✈ C-GIRL ✈ 20-Jul-2013 ✈ CYQB - CYXL

Flight Track Log - Related Links

Times and Time Zones

All times are in EDT time to prevent confusion due to time zone crossing. See the C-GIRL flight status page for this flight to view local times or setup timezone preferences in your user account.

Time Position Orientation Groundspeed Altitude Reporting Facility
EDT Latitude Longitude Course Direction KTS MPH feet Rate Location/Type
09:58AM 46.7667 -71.3833 270° West 130 150 800  Level Montreal Center
09:59AM 46.7333 -71.4333 226° Southwest 190 219 3,100 2,100 Climbing Montreal Center
10:00AM 46.7000 -71.4833 226° Southwest 210 242 5,100 2,220 Climbing Montreal Center
10:01AM 46.7000 -71.5833 270° West 220 253 7,600 2,400 Climbing Montreal Center
10:02AM 46.7000 -71.6667 270° West 210 242 9,900 2,100 Climbing Montreal Center
10:03AM 46.6500 -72.0274 270° West  Level FlightAware Approximate
10:03AM 46.7167 -71.7500 286° West 220 253 11,800  Level Montreal Center
10:04AM 46.7167 -71.8500 270° West 230 265 13,500 1,560 Climbing Montreal Center
10:05AM 46.7500 -71.9500 296° West 230 265 15,000 1,200 Climbing Montreal Center
10:06AM 46.7667 -72.0500 284° West 270 311 16,000 1,260 Climbing Montreal Center
10:07AM 46.7833 -72.1167 290° West 240 276 17,600 1,680 Climbing Montreal Center
10:08AM 46.7833 -72.2500 270° West 240 276 19,400 1,440 Climbing Montreal Center
10:09AM 46.7667 -72.3167 250° West 240 276 20,500 1,200 Climbing Montreal Center
10:10AM 46.7833 -72.4333 282° West 240 276 21,900 1,200 Climbing Montreal Center
10:11AM 46.7833 -72.5333 270° West 250 288 23,000 960 Climbing Montreal Center
10:12AM 46.7833 -72.6333 270° West 260 299 23,900 900 Climbing Montreal Center
10:13AM 46.7833 -72.7333 270° West 260 299 24,900 900 Climbing Montreal Center
10:14AM 46.7833 -72.8500 270° West 260 299 25,800 840 Climbing Montreal Center
10:15AM 46.7667 -72.9500 256° West 260 299 26,600 780 Climbing Montreal Center
10:16AM 46.8000 -73.0500 296° West 270 311 27,400 840 Climbing Montreal Center
10:17AM 46.8167 -73.1667 282° West 260 299 28,300 900 Climbing Montreal Center
10:18AM 46.8333 -73.2667 284° West 260 299 29,200 840 Climbing Montreal Center
10:19AM 46.8500 -73.3667 284° West 250 288 30,000 780 Climbing Montreal Center
10:20AM 46.8667 -73.4667 284° West 250 288 30,800 780 Climbing Montreal Center
10:21AM 46.8833 -73.5333 290° West 240 276 31,600 720 Climbing Montreal Center
10:22AM 46.9167 -73.6333 296° West 230 265 32,300 780 Climbing Montreal Center
10:23AM 46.9333 -73.7333 284° West 230 265 33,200 900 Climbing Montreal Center
10:24AM 46.9500 -73.8000 290° West 230 265 34,100 900 Climbing Montreal Center
10:25AM 46.9667 -73.9000 284° West 220 253 35,000 840 Climbing Montreal Center
10:26AM 46.9833 -74.0000 284° West 220 253 35,800 840 Climbing Montreal Center
10:27AM 47.0000 -74.0667 290° West 220 253 36,700 840 Climbing Montreal Center
10:28AM 47.0167 -74.1667 284° West 220 253 37,500 600 Climbing Montreal Center
10:29AM 47.0333 -74.2667 284° West 220 253 38,000 240 Climbing Montreal Center
10:30AM 47.0500 -74.3333 290° West 240 276 38,000  Level Montreal Center
10:31AM 47.0667 -74.4667 280° West 260 299 38,000  Level Montreal Center
10:32AM 47.1000 -74.5667 296° West 260 299 38,000 600 Level Montreal Center
10:33AM 47.1167 -74.6667 284° West 260 299 39,200 780 Climbing Montreal Center
10:34AM 47.1500 -74.7500 300° West 240 276 39,600 300 Climbing Montreal Center
10:35AM 47.1500 -74.8500 270° West 240 276 39,800 180 Climbing Montreal Center
10:36AM 47.1833 -74.9500 296° West 250 288 40,000 60 Climbing Montreal Center
10:37AM 47.2000 -75.0500 284° West 250 288 40,000  Level Montreal Center
10:38AM 47.2167 -75.1500 284° West 260 299 40,000  Level Montreal Center
10:39AM 47.2333 -75.2500 284° West 270 311 40,000  Level Montreal Center
10:40AM 47.2500 -75.3667 282° West 270 311 40,000  Level Montreal Center
10:41AM 47.2667 -75.4667 284° West 280 322 40,000  Level Montreal Center
10:42AM 47.3000 -75.6000 290° West 280 322 40,000  Level Montreal Center
10:43AM 47.3167 -75.7000 284° West 280 322 40,000  Level Montreal Center
10:44AM 47.3333 -75.8167 282° West 280 322 40,000  Level Montreal Center
10:45AM 47.3500 -75.9500 281° West 280 322 40,000  Level Montreal Center
10:46AM 47.3667 -76.0333 286° West 280 322 40,000  Level Montreal Center
10:47AM 47.4000 -76.1667 290° West 280 322 40,000  Level Montreal Center
10:48AM 47.4167 -76.2667 284° West 270 311 40,000  Level Montreal Center
10:49AM 47.4333 -76.3667 284° West 270 311 40,000  Level Montreal Center
10:50AM 47.4500 -76.4667 284° West 270 311 40,000  Level Montreal Center
10:51AM 47.4667 -76.5833 282° West 270 311 40,000  Level Montreal Center
10:52AM 47.4833 -76.6833 284° West 270 311 40,000  Level Montreal Center
10:53AM 47.5167 -76.8167 290° West 270 311 40,000  Level Montreal Center
10:54AM 47.5333 -76.9167 284° West 270 311 40,000  Level Montreal Center
10:55AM 47.5500 -77.0167 284° West 270 311 40,000  Level Montreal Center
10:56AM 47.5667 -77.1167 284° West 270 311 40,000  Level Montreal Center
10:57AM 47.5833 -77.2333 282° West 270 311 40,000  Level Montreal Center
10:58AM 47.6000 -77.3333 284° West 270 311 40,000  Level Montreal Center
10:59AM 47.6167 -77.4333 284° West 270 311 40,000  Level Montreal Center
11:00AM 47.6500 -77.5667 290° West 270 311 40,000  Level Montreal Center
11:01AM 47.6667 -77.6667 284° West 270 311 40,000  Level Montreal Center
11:02AM 47.6667 -77.7833 270° West 270 311 40,000  Level Montreal Center
11:03AM 47.6833 -77.8833 284° West 270 311 40,000  Level Montreal Center
11:04AM 47.7000 -77.9833 284° West 270 311 40,000  Level Montreal Center
11:05AM 47.7167 -78.1167 281° West 270 311 40,000  Level Montreal Center
11:06AM 47.7500 -78.2167 296° West 270 311 40,000  Level Montreal Center
11:07AM 47.7667 -78.3167 284° West 270 311 40,000  Level Montreal Center
11:08AM 47.7833 -78.4167 284° West 270 311 40,000  Level Montreal Center
11:09AM 47.8000 -78.5500 281° West 270 311 40,000  Level Montreal Center
11:10AM 47.8167 -78.6500 284° West 280 322 40,000  Level Montreal Center
11:11AM 47.8333 -78.7667 282° West 270 311 40,000  Level Montreal Center
11:12AM 47.8500 -78.8667 284° West 270 311 40,000  Level Montreal Center
11:13AM 47.8667 -79.0000 281° West 280 322 40,000  Level Montreal Center
11:14AM 47.8833 -79.1000 284° West 270 311 40,000  Level Montreal Center
11:15AM 47.9000 -79.2167 282° West 280 322 40,000 -240 Level Montreal Center
11:16AM 47.9167 -79.3333 282° West 280 322 39,600 -480 Descending Montreal Center
11:17AM 47.9333 -79.4500 282° West 290 334 39,100 -540 Descending Montreal Center
11:18AM 47.9500 -79.5833 281° West 300 345 38,600 -540 Descending Montreal Center
11:19AM 47.9667 -79.7000 282° West 310 357 38,100 -300 Descending Montreal Center
11:20AM 48.0000 -79.8333 291° West 310 357 38,000 -60 Descending Montreal Center
11:21AM 48.0000 -79.9333 270° West 300 345 38,000  Level Montreal Center
11:22AM 48.0167 -80.0667 281° West 290 334 38,000  Level Montreal Center
11:23AM 48.0500 -80.1833 293° West 290 334 38,000  Level Montreal Center
11:24AM 48.0667 -80.2833 284° West 280 322 38,000  Level Montreal Center
11:25AM 48.0833 -80.3833 284° West 280 322 38,000  Level Toronto Center
11:26AM 48.1000 -80.5000 282° West 290 334 38,000  Level Toronto Center
11:27AM 48.1167 -80.6333 281° West 280 322 38,000  Level Toronto Center
11:28AM 48.1333 -80.7333 284° West 290 334 38,000  Level Toronto Center
11:29AM 48.1500 -80.8500 282° West 290 334 38,000  Level Toronto Center
11:30AM 48.1500 -80.9833 270° West 290 334 38,000  Level Toronto Center
11:31AM 48.1667 -81.0833 284° West 290 334 38,000  Level Toronto Center
11:32AM 48.1833 -81.2000 282° West 290 334 38,000  Level Toronto Center
11:33AM 48.2000 -81.3333 281° West 290 334 38,000  Level Toronto Center
11:34AM 48.2167 -81.4500 282° West 290 334 38,000  Level Toronto Center
11:35AM 48.2333 -81.5500 284° West 290 334 38,000  Level Toronto Center
11:36AM 48.2500 -81.6833 281° West 290 334 38,000  Level Toronto Center
11:37AM 48.2667 -81.8000 282° West 290 334 38,000  Level Toronto Center
11:38AM 48.2833 -81.9167 282° West 290 334 38,000  Level Toronto Center
11:39AM 48.2833 -82.0333 270° West 290 334 38,000  Level Toronto Center
11:40AM 48.3000 -82.1667 281° West 290 334 38,000  Level Toronto Center
11:41AM 48.3167 -82.2833 282° West 290 334 38,000  Level Toronto Center
11:42AM 48.3333 -82.3833 284° West 290 334 38,000  Level Toronto Center
11:43AM 48.3500 -82.5167 281° West 290 334 38,000  Level Toronto Center
11:44AM 48.3667 -82.6333 282° West 290 334 38,000  Level Toronto Center
11:45AM 48.3667 -82.7333 270° West 290 334 38,000  Level Toronto Center
11:46AM 48.3833 -82.8667 281° West 290 334 38,000  Level Toronto Center
11:47AM 48.4000 -83.0000 281° West 290 334 38,000  Level Toronto Center
11:48AM 48.4167 -83.1167 282° West 290 334 38,000  Level Toronto Center
11:49AM 48.4333 -83.2667 280° West 290 334 38,000  Level Montreal Center
11:50AM 48.4333 -83.3667 270° West 290 334 38,000  Level Montreal Center
11:51AM 48.4667 -83.5000 291° West 290 334 38,000  Level Montreal Center
11:52AM 48.4667 -83.6333 270° West 290 334 38,000  Level Montreal Center
11:53AM 48.4833 -83.7500 282° West 290 334 38,000  Level Montreal Center
11:54AM 48.4833 -83.8667 270° West 290 334 38,000  Level Montreal Center
11:55AM 48.5167 -84.0000 291° West 290 334 38,000  Level Montreal Center
11:56AM 48.5167 -84.1167 270° West 300 345 38,000  Level Montreal Center
11:57AM 48.5333 -84.2167 284° West 300 345 38,000  Level Toronto Center
11:58AM 48.5333 -84.3333 270° West 300 345 38,000  Level Toronto Center
11:59AM 48.5667 -84.4667 291° West 300 345 38,000  Level Toronto Center
12:00PM 48.5833 -84.6000 281° West 300 345 38,000  Level Toronto Center
12:01PM 48.5833 -84.7167 270° West 300 345 38,000  Level Toronto Center
12:02PM 48.6000 -84.8167 284° West 300 345 38,000  Level Toronto Center
12:03PM 48.6167 -84.9667 280° West 300 345 38,000  Level Toronto Center
12:04PM 48.6167 -85.0833 270° West 300 345 38,000  Level Toronto Center
12:05PM 48.6333 -85.2000 282° West 300 345 38,000  Level Toronto Center
12:06PM 48.6500 -85.3333 281° West 300 345 38,000  Level Toronto Center
12:07PM 48.6500 -85.4500 270° West 300 345 38,000  Level Toronto Center
12:08PM 48.6667 -85.5833 281° West 300 345 38,000  Level Toronto Center
12:09PM 48.6833 -85.6833 284° West 300 345 38,000  Level Toronto Center
12:10PM 48.6833 -85.8333 270° West 300 345 38,000  Level Toronto Center
12:11PM 48.7000 -85.9500 282° West 300 345 38,000  Level Toronto Center
12:12PM 48.7000 -86.1000 270° West 300 345 38,000  Level Toronto Center
12:13PM 48.7167 -86.2000 284° West 300 345 38,000  Level Toronto Center
12:14PM 48.7333 -86.3333 281° West 300 345 38,000  Level Toronto Center
12:15PM 48.7667 -86.4500 293° West 300 345 38,000  Level Toronto Center
12:16PM 48.8000 -86.5667 293° West 300 345 38,000  Level Toronto Center
12:17PM 48.8167 -86.7000 281° West 310 357 38,000  Level Toronto Center
12:18PM 48.8667 -86.8000 307° West 300 345 38,000  Level Toronto Center
12:19PM 48.9000 -86.9333 291° West 310 357 38,000  Level Toronto Center
12:20PM 48.9167 -87.0333 284° West 310 357 38,000  Level Toronto Center
12:21PM 48.9667 -87.1667 300° West 310 357 38,000  Level Toronto Center
12:22PM 48.9833 -87.2833 282° West 310 357 38,000  Level Toronto Center
12:23PM 49.0167 -87.4000 294° West 310 357 38,000  Level Toronto Center
12:24PM 49.0500 -87.5167 294° West 310 357 38,000  Level Toronto Center
12:25PM 49.0833 -87.6500 291° West 310 357 38,000  Level Toronto Center
12:26PM 49.1000 -87.7833 281° West 310 357 38,000  Level Toronto Center
12:27PM 49.1333 -87.8833 297° West 310 357 38,000  Level Toronto Center
12:28PM 49.1500 -88.0167 281° West 310 357 38,000  Level Toronto Center
12:29PM 49.1833 -88.1500 291° West 320 368 38,000  Level Toronto Center
12:30PM 49.2000 -88.2500 284° West 310 357 38,000  Level Winnipeg Center
12:31PM 49.2333 -88.3667 294° West 310 357 38,000  Level Winnipeg Center
12:32PM 49.2500 -88.5000 281° West 310 357 38,000  Level Winnipeg Center
12:33PM 49.2833 -88.6167 294° West 310 357 38,000  Level Winnipeg Center
12:34PM 49.3167 -88.7500 291° West 310 357 38,000  Level Winnipeg Center
12:35PM 49.3333 -88.8667 282° West 310 357 38,000  Level Winnipeg Center
12:36PM 49.3667 -89.0000 291° West 310 357 38,000 -240 Level Winnipeg Center
12:37PM 49.3833 -89.1167 282° West 310 357 37,600 -1,020 Descending Winnipeg Center
12:38PM 49.4000 -89.2500 281° West 300 345 36,000 -1,620 Descending Winnipeg Center
12:39PM 49.4167 -89.3667 282° West 310 357 34,400 -1,680 Descending Winnipeg Center
12:40PM 49.4500 -89.5000 291° West 320 368 32,700 -1,800 Descending Winnipeg Center
12:41PM 49.4667 -89.6500 280° West 340 391 30,800 -1,800 Descending Winnipeg Center
12:42PM 49.5000 -89.8000 289° West 340 391 29,100 -1,860 Descending Winnipeg Center
12:43PM 49.5167 -89.9167 282° West 350 403 27,100 -1,860 Descending Winnipeg Center
12:44PM 49.5500 -90.0833 287° West 340 391 25,400 -1,740 Descending Winnipeg Center
12:45PM 49.5833 -90.2000 294° West 340 391 23,700 -1,800 Descending Winnipeg Center
12:46PM 49.6000 -90.3500 280° West 330 380 21,800 -1,800 Descending Winnipeg Center
12:47PM 49.6333 -90.4833 291° West 320 368 20,100 -1,620 Descending Winnipeg Center
12:48PM 49.6500 -90.6000 282° West 310 357 18,600 -1,620 Descending Winnipeg Center
12:49PM 49.6667 -90.7333 281° West 300 345 16,900 -1,560 Descending Winnipeg Center
12:50PM 49.7000 -90.8500 294° West 300 345 15,500 -1,500 Descending Winnipeg Center
12:51PM 49.7167 -90.9833 281° West 300 345 13,900 -1,560 Descending Winnipeg Center
12:52PM 49.7500 -91.0833 297° West 290 334 12,400 -1,560 Descending Winnipeg Center
12:53PM 49.7667 -91.2167 281° West 290 334 10,800 -1,500 Descending Winnipeg Center
12:54PM 49.7833 -91.3333 283° West 280 322 9,400 -1,500 Descending Winnipeg Center
12:55PM 49.8000 -91.4500 283° West 270 311 7,900 -1,440 Descending Winnipeg Center
12:56PM 49.8167 -91.5500 285° West 270 311 6,600 -1,260 Descending Winnipeg Center
12:57PM 49.8333 -91.6500 285° West 240 276 5,400 -1,320 Descending Winnipeg Center
12:58PM 49.8667 -91.7500 297° West 220 253 4,000 -1,200 Descending Winnipeg Center
12:59PM 49.8667 -91.8167 270° West 220 253 3,000 -600 Descending Winnipeg Center
01:00PM 49.9167 -91.8500 337° Northwest 200 230 2,900 -180 Descending Winnipeg Center
01:01PM 49.9667 -91.8667 348° North 200 230 2,700 -180 Descending Winnipeg Center
01:02PM 50.0333 -91.8500 North 190 219 2,600 -540 Descending Winnipeg Center
01:03PM 50.0667 -91.8500 360° North 140 161 1,700 -900 Descending Winnipeg Center